Time;durP1;ratioP1;P1;durP2;ratioP2;P2;SDS_P1;SDS_P2;PMS_P1;PMS_P2;Temp;Humidity;BMP_temperature;BMP_pressure;BME280_temperature;BME280_humidity;BME280_pressure;Samples;Min_cycle;Max_cycle;Signal;HPM_P1;HPM_P2
2022/07/08 00:02:08;;;;;;;6.32;5.25;;;17.20;81.80;;;;;;5093973;28;20103;-17
2022/07/08 00:04:35;;;;;;;10.32;8.10;;;17.20;81.50;;;;;;5092487;28;20118;-17
2022/07/08 00:07:00;;;;;;;7.35;6.00;;;17.20;81.70;;;;;;5094099;28;20437;-16
2022/07/08 00:09:27;;;;;;;9.25;7.60;;;17.10;81.80;;;;;;5094032;28;20019;-16
2022/07/08 00:11:54;;;;;;;10.05;6.07;;;17.10;82.00;;;;;;5093714;28;20391;-17
2022/07/08 00:14:20;;;;;;;7.47;5.78;;;17.10;81.90;;;;;;5092344;28;20024;-17
2022/07/08 00:16:46;;;;;;;9.90;8.25;;;17.10;82.00;;;;;;5094038;28;20084;-16
2022/07/08 00:19:14;;;;;;;10.43;8.23;;;17.10;82.70;;;;;;5093927;28;20028;-17
2022/07/08 00:21:44;;;;;;;8.68;6.43;;;17.10;82.40;;;;;;5093924;28;20036;-16
2022/07/08 00:24:11;;;;;;;9.07;6.80;;;17.10;82.30;;;;;;5093502;28;20035;-17
2022/07/08 00:26:38;;;;;;;6.93;5.63;;;17.10;82.30;;;;;;5093384;28;20027;-17
2022/07/08 00:29:04;;;;;;;7.85;6.00;;;17.10;82.40;;;;;;5093816;28;20024;-16
2022/07/08 00:31:30;;;;;;;7.43;5.20;;;17.10;82.30;;;;;;5094565;28;20376;-17
2022/07/08 00:33:56;;;;;;;10.82;8.63;;;17.00;82.10;;;;;;5093816;28;20020;-16
2022/07/08 00:36:22;;;;;;;8.35;5.43;;;17.00;82.40;;;;;;5094131;28;20103;-16
2022/07/08 00:38:48;;;;;;;9.25;7.10;;;17.00;82.50;;;;;;5093379;28;20469;-17
2022/07/08 00:41:15;;;;;;;10.05;7.35;;;16.90;82.60;;;;;;5093630;28;20028;-17
2022/07/08 00:43:43;;;;;;;8.27;6.10;;;16.90;82.70;;;;;;5093271;28;20467;-17
2022/07/08 00:46:11;;;;;;;8.75;5.93;;;16.90;83.50;;;;;;5092084;28;20028;-17
2022/07/08 00:48:39;;;;;;;8.85;7.35;;;16.80;83.10;;;;;;5093797;28;20035;-17
2022/07/08 00:51:13;;;;;;;11.02;9.00;;;16.80;83.00;;;;;;5093503;28;20028;-17
2022/07/08 00:53:40;;;;;;;9.07;6.68;;;16.80;83.20;;;;;;5093175;28;20112;-16
2022/07/08 00:56:08;;;;;;;8.98;6.28;;;16.80;83.70;;;;;;5093378;28;20080;-17
2022/07/08 00:58:35;;;;;;;8.73;6.38;;;16.70;83.60;;;;;;5093300;28;20075;-17
2022/07/08 01:01:01;;;;;;;7.45;6.30;;;16.70;83.50;;;;;;5093469;28;20020;-16
2022/07/08 01:03:27;;;;;;;13.07;6.03;;;16.70;83.50;;;;;;5093034;28;20059;-16
2022/07/08 01:05:53;;;;;;;7.03;5.53;;;16.70;83.50;;;;;;5093419;28;20054;-17
2022/07/08 01:08:20;;;;;;;6.13;5.03;;;16.60;83.30;;;;;;5093166;28;20542;-17
2022/07/08 01:10:46;;;;;;;6.95;4.88;;;16.60;83.50;;;;;;5093325;28;20024;-17
2022/07/08 01:13:12;;;;;;;7.15;5.88;;;16.50;83.60;;;;;;5093039;28;20388;-17
2022/07/08 01:15:39;;;;;;;9.93;7.90;;;16.50;83.60;;;;;;5093014;28;20024;-17
2022/07/08 01:18:05;;;;;;;8.68;6.13;;;16.40;83.90;;;;;;5092996;28;20452;-17
2022/07/08 01:20:34;;;;;;;8.18;6.38;;;16.40;83.90;;;;;;5092798;28;20088;-16
2022/07/08 01:23:00;;;;;;;7.38;5.72;;;16.30;83.80;;;;;;5092872;28;20441;-17
2022/07/08 01:25:27;;;;;;;8.55;5.93;;;16.30;83.90;;;;;;5093227;28;20059;-17
2022/07/08 01:27:54;;;;;;;7.47;5.82;;;16.30;84.00;;;;;;5093088;28;20119;-17
2022/07/08 01:30:20;;;;;;;11.52;6.30;;;16.30;84.10;;;;;;5091423;28;20073;-17
2022/07/08 01:32:46;;;;;;;7.43;5.30;;;16.20;84.20;;;;;;5092802;28;20429;-17
2022/07/08 01:35:12;;;;;;;7.88;5.50;;;16.20;84.00;;;;;;5092849;28;20487;-17
2022/07/08 01:37:38;;;;;;;8.63;6.53;;;16.20;84.00;;;;;;5092891;28;20032;-16
2022/07/08 01:40:04;;;;;;;8.15;5.90;;;16.20;84.40;;;;;;5092815;28;20452;-17
2022/07/08 01:42:30;;;;;;;9.10;7.28;;;16.10;84.30;;;;;;5092908;28;20024;-16
2022/07/08 01:44:56;;;;;;;10.02;6.75;;;16.10;84.30;;;;;;5092880;28;20040;-17
2022/07/08 01:47:22;;;;;;;9.98;5.82;;;16.00;84.50;;;;;;5093555;28;20460;-17
2022/07/08 01:49:48;;;;;;;15.30;9.40;;;16.00;84.30;;;;;;5093068;28;20468;-17
2022/07/08 01:52:14;;;;;;;10.93;7.53;;;16.00;84.60;;;;;;5092471;28;20435;-14
2022/07/08 01:54:39;;;;;;;9.13;6.30;;;16.00;84.50;;;;;;5092452;28;20040;-17
2022/07/08 01:57:14;;;;;;;9.18;6.50;;;16.00;84.90;;;;;;5092528;28;20051;-17
2022/07/08 01:59:41;;;;;;;9.63;7.20;;;15.90;84.50;;;;;;5092681;28;20031;-16
2022/07/08 02:02:07;;;;;;;13.85;9.80;;;16.00;84.70;;;;;;5094755;28;20028;-16
2022/07/08 02:04:33;;;;;;;14.43;10.63;;;15.90;84.90;;;;;;5096024;28;20080;-16
2022/07/08 02:06:59;;;;;;;11.02;7.53;;;16.00;84.80;;;;;;5096833;28;20115;-16
2022/07/08 02:09:25;;;;;;;9.80;7.82;;;16.00;84.90;;;;;;5096150;28;20488;-17
2022/07/08 02:14:36;;;;;;;10.80;7.80;;;15.90;84.90;;;;;;5096194;28;20026;-17
2022/07/08 02:17:03;;;;;;;9.43;7.20;;;16.00;85.00;;;;;;5096344;28;20111;-16
2022/07/08 02:19:30;;;;;;;16.08;11.80;;;16.00;84.90;;;;;;5096283;28;20035;-16
2022/07/08 02:21:56;;;;;;;9.38;7.32;;;16.00;84.90;;;;;;5095876;28;20494;-17
2022/07/08 02:24:22;;;;;;;9.45;7.80;;;16.00;85.00;;;;;;5095555;28;20020;-17
2022/07/08 02:26:48;;;;;;;8.20;6.75;;;15.90;85.00;;;;;;5095770;28;20028;-16
2022/07/08 02:29:14;;;;;;;13.15;10.00;;;15.90;85.00;;;;;;5096089;28;20020;-17
2022/07/08 02:31:40;;;;;;;11.57;8.75;;;15.90;85.00;;;;;;5096079;28;20413;-15
2022/07/08 02:34:06;;;;;;;14.38;9.20;;;15.90;85.10;;;;;;5095692;28;20426;-16
2022/07/08 02:36:32;;;;;;;15.32;12.02;;;15.90;85.10;;;;;;5096252;28;20024;-15
2022/07/08 02:38:58;;;;;;;13.07;10.88;;;15.90;85.30;;;;;;5094483;28;20086;-16
2022/07/08 02:41:23;;;;;;;12.30;9.20;;;15.90;85.40;;;;;;5095842;28;20115;-17
2022/07/08 02:43:50;;;;;;;16.65;12.32;;;15.90;85.70;;;;;;5095620;28;20376;-16
2022/07/08 02:46:16;;;;;;;15.93;12.43;;;15.90;85.50;;;;;;5095500;28;20479;-17
2022/07/08 02:48:42;;;;;;;10.75;8.18;;;16.00;85.60;;;;;;5095303;28;20024;-15
2022/07/08 02:51:08;;;;;;;12.38;8.50;;;16.00;86.30;;;;;;5094115;28;20031;-15
2022/07/08 02:53:34;;;;;;;13.65;11.30;;;15.90;85.70;;;;;;5095262;28;20040;-15
2022/07/08 02:55:59;;;;;;;10.40;7.75;;;15.90;85.50;;;;;;5095204;28;20028;-15
2022/07/08 02:58:25;;;;;;;10.73;8.88;;;15.90;85.60;;;;;;5095361;28;20032;-16
2022/07/08 03:00:52;;;;;;;14.15;10.23;;;15.90;85.60;;;;;;5095184;28;20088;-16
2022/07/08 03:03:18;;;;;;;9.82;8.35;;;15.90;85.50;;;;;;5095382;28;20024;-15
2022/07/08 03:05:43;;;;;;;11.43;7.38;;;15.90;85.80;;;;;;5095359;28;20035;-14
2022/07/08 03:08:10;;;;;;;9.07;6.47;;;15.90;85.40;;;;;;5095639;28;20012;-15
2022/07/08 03:10:35;;;;;;;11.40;8.85;;;15.80;85.50;;;;;;5094865;28;20024;-16
2022/07/08 03:13:01;;;;;;;10.32;8.23;;;15.80;85.40;;;;;;5094861;28;20487;-16
2022/07/08 03:15:27;;;;;;;11.60;7.70;;;15.80;85.60;;;;;;5094826;28;20040;-14
2022/07/08 03:17:53;;;;;;;12.57;7.90;;;15.80;86.20;;;;;;5095176;28;20024;-16
2022/07/08 03:20:19;;;;;;;11.50;8.68;;;15.70;85.60;;;;;;5094890;28;20058;-16
2022/07/08 03:22:46;;;;;;;11.55;8.60;;;15.70;86.00;;;;;;5095005;28;20495;-16
2022/07/08 03:25:12;;;;;;;11.88;8.48;;;15.70;86.00;;;;;;5095154;28;20111;-15
2022/07/08 03:27:38;;;;;;;10.20;8.35;;;15.60;85.80;;;;;;5094492;28;20024;-16
2022/07/08 03:30:05;;;;;;;10.73;8.27;;;15.60;85.60;;;;;;5094615;28;20027;-16
2022/07/08 03:32:31;;;;;;;10.35;7.43;;;15.60;85.60;;;;;;5094523;28;20035;-15
2022/07/08 03:34:58;;;;;;;11.80;8.98;;;15.60;85.80;;;;;;5095066;28;20096;-15
2022/07/08 03:37:28;;;;;;;11.07;8.70;;;15.50;85.80;;;;;;5094919;28;20035;-16
2022/07/08 03:39:53;;;;;;;10.10;7.90;;;15.50;85.90;;;;;;5094583;28;20111;-15
2022/07/08 03:42:20;;;;;;;8.77;7.05;;;15.50;86.00;;;;;;5092858;28;20567;-16
2022/07/08 03:44:46;;;;;;;9.70;6.80;;;15.40;85.90;;;;;;5094262;28;20119;-16
2022/07/08 03:47:12;;;;;;;8.82;6.65;;;15.40;85.70;;;;;;5094240;28;20392;-15
2022/07/08 03:49:39;;;;;;;10.23;7.28;;;15.40;85.80;;;;;;5094525;28;20036;-16
2022/07/08 03:52:06;;;;;;;10.80;7.63;;;15.40;85.80;;;;;;5094174;28;20035;-15
2022/07/08 03:54:32;;;;;;;14.35;11.25;;;15.40;85.80;;;;;;5093773;28;20165;-15
2022/07/08 03:56:57;;;;;;;13.70;9.60;;;15.40;85.80;;;;;;5094886;28;20063;-14
2022/07/08 03:59:29;;;;;;;15.98;12.95;;;15.40;85.80;;;;;;5092881;28;20035;-16
2022/07/08 04:01:55;;;;;;;17.38;11.20;;;15.50;85.80;;;;;;5094074;28;20035;-16
2022/07/08 04:04:21;;;;;;;10.30;8.02;;;15.50;86.10;;;;;;5093670;28;20020;-16
2022/07/08 04:06:47;;;;;;;11.05;7.97;;;15.50;86.10;;;;;;5092716;28;20035;-15
2022/07/08 04:09:14;;;;;;;19.75;13.20;;;15.50;85.90;;;;;;5094171;28;20039;-15
2022/07/08 04:11:41;;;;;;;19.63;13.13;;;15.60;86.30;;;;;;5094014;28;20048;-16
2022/07/08 04:14:07;;;;;;;15.93;12.40;;;15.60;85.90;;;;;;5094094;28;20069;-16
2022/07/08 04:16:34;;;;;;;16.05;11.82;;;15.70;85.80;;;;;;5093490;28;20051;-16
2022/07/08 04:18:59;;;;;;;17.13;12.35;;;15.80;85.80;;;;;;5094098;28;20020;-16
2022/07/08 04:21:25;;;;;;;18.17;13.27;;;15.70;85.90;;;;;;5094003;28;20035;-15
2022/07/08 04:23:57;;;;;;;23.98;15.07;;;15.90;85.70;;;;;;5093468;28;20099;-15
2022/07/08 04:26:29;;;;;;;15.48;11.85;;;15.90;85.90;;;;;;5093409;28;20467;-16
2022/07/08 04:28:55;;;;;;;16.00;11.63;;;16.00;85.60;;;;;;5093994;28;20036;-16
2022/07/08 04:31:21;;;;;;;18.10;14.07;;;16.00;85.40;;;;;;5093476;28;20114;-16
2022/07/08 04:33:47;;;;;;;14.90;11.90;;;16.10;85.40;;;;;;5092403;28;20051;-15
2022/07/08 04:36:13;;;;;;;16.02;12.13;;;16.20;85.20;;;;;;5093559;28;20058;-16
2022/07/08 04:38:39;;;;;;;16.42;13.13;;;16.20;85.10;;;;;;5093951;28;20417;-16
2022/07/08 04:41:05;;;;;;;13.38;9.75;;;16.30;85.10;;;;;;5093717;28;20020;-16
2022/07/08 04:43:31;;;;;;;12.68;9.73;;;16.40;85.10;;;;;;5092118;28;20032;-16
2022/07/08 04:45:56;;;;;;;14.20;10.70;;;16.50;84.90;;;;;;5093413;28;20063;-15
2022/07/08 04:48:23;;;;;;;16.25;13.82;;;16.50;84.60;;;;;;5093405;28;20104;-16
2022/07/08 04:50:49;;;;;;;16.20;12.10;;;16.60;84.50;;;;;;5093955;28;20062;-15
2022/07/08 04:53:14;;;;;;;17.13;12.30;;;16.70;84.30;;;;;;5092969;28;20083;-15
2022/07/08 04:55:40;;;;;;;15.85;12.43;;;16.80;84.20;;;;;;5093858;28;20032;-15
2022/07/08 04:58:06;;;;;;;17.08;12.07;;;16.90;83.90;;;;;;5093053;28;20506;-16
2022/07/08 05:00:33;;;;;;;14.15;10.98;;;17.00;83.90;;;;;;5092978;28;20035;-16
2022/07/08 05:03:00;;;;;;;14.93;12.25;;;17.10;83.60;;;;;;5093324;28;20031;-16
2022/07/08 05:05:27;;;;;;;14.75;10.95;;;17.20;83.40;;;;;;5091879;28;20396;-16
2022/07/08 05:07:54;;;;;;;14.80;9.43;;;17.30;83.10;;;;;;5091905;28;20481;-16
2022/07/08 05:10:24;;;;;;;14.25;10.70;;;17.40;83.00;;;;;;5093000;28;20395;-15
2022/07/08 05:12:51;;;;;;;15.32;11.68;;;17.50;82.70;;;;;;5093301;28;20361;-15
2022/07/08 05:15:18;;;;;;;12.82;9.63;;;17.60;82.60;;;;;;5093338;28;20024;-16
2022/07/08 05:17:44;;;;;;;11.95;9.55;;;17.70;82.50;;;;;;5093376;28;20027;-16
2022/07/08 05:20:11;;;;;;;13.50;10.77;;;17.90;82.40;;;;;;5093200;28;20020;-15
2022/07/08 05:22:37;;;;;;;13.55;9.73;;;17.90;82.20;;;;;;5093177;28;20070;-16
2022/07/08 05:25:04;;;;;;;13.88;10.52;;;18.00;82.10;;;;;;5093201;28;20123;-15
2022/07/08 05:27:30;;;;;;;10.95;8.02;;;18.20;81.90;;;;;;5093082;28;20491;-16
2022/07/08 05:29:56;;;;;;;9.82;8.05;;;18.40;81.50;;;;;;5093202;28;20042;-15
2022/07/08 05:32:22;;;;;;;12.55;7.20;;;18.40;81.20;;;;;;5092672;28;20491;-15
2022/07/08 05:34:48;;;;;;;8.10;6.38;;;18.50;80.90;;;;;;5092821;28;20017;-15
2022/07/08 05:37:14;;;;;;;10.05;7.80;;;18.60;80.70;;;;;;5096540;28;20067;-16
2022/07/08 05:39:41;;;;;;;8.02;6.57;;;18.70;80.50;;;;;;5097069;28;20028;-16
2022/07/08 05:42:08;;;;;;;8.13;6.32;;;18.80;80.30;;;;;;5096773;28;20024;-15
2022/07/08 05:44:36;;;;;;;6.93;6.03;;;18.90;80.00;;;;;;5096412;28;20032;-15
2022/07/08 05:47:10;;;;;;;7.85;6.65;;;19.00;79.80;;;;;;5095375;28;20031;-15
2022/07/08 05:49:36;;;;;;;;;;;19.10;79.60;;;;;;5097332;28;20024;-16
2022/07/08 05:52:03;;;;;;;7.55;5.95;;;19.20;79.40;;;;;;5096539;28;19907;-16
2022/07/08 05:54:30;;;;;;;7.07;4.95;;;19.30;78.80;;;;;;5096143;28;20137;-16
2022/07/08 05:56:58;;;;;;;5.15;4.65;;;19.40;77.80;;;;;;5096575;28;20055;-14
2022/07/08 05:59:24;;;;;;;7.28;5.38;;;19.50;77.80;;;;;;5096462;28;20027;-15
2022/07/08 06:01:50;;;;;;;8.85;6.18;;;19.60;77.40;;;;;;5096617;28;20024;-15
2022/07/08 06:04:16;;;;;;;8.15;4.95;;;19.70;77.20;;;;;;5096004;28;20487;-16
2022/07/08 06:06:42;;;;;;;5.70;4.88;;;19.80;77.00;;;;;;5096767;28;20031;-15
2022/07/08 06:09:08;;;;;;;7.88;5.03;;;19.80;76.60;;;;;;5096507;28;20028;-16
2022/07/08 06:11:33;;;;;;;6.18;4.05;;;19.90;76.30;;;;;;5096166;28;20064;-16
2022/07/08 06:13:59;;;;;;;6.97;4.68;;;20.00;75.80;;;;;;5096357;28;20017;-15
2022/07/08 06:16:25;;;;;;;5.28;4.28;;;20.10;75.70;;;;;;5096108;28;20106;-15
2022/07/08 06:18:52;;;;;;;5.75;4.40;;;20.20;75.50;;;;;;5096320;28;20036;-15
2022/07/08 06:21:18;;;;;;;5.82;4.53;;;20.30;75.20;;;;;;5096283;28;20050;-15
2022/07/08 06:23:44;;;;;;;6.18;4.05;;;20.40;74.80;;;;;;5096188;28;20379;-14
2022/07/08 06:26:11;;;;;;;6.32;4.18;;;20.50;74.50;;;;;;5095810;28;20021;-13
2022/07/08 06:28:37;;;;;;;4.82;4.22;;;20.60;73.70;;;;;;5095849;28;20111;-15
2022/07/08 06:31:03;;;;;;;5.60;4.22;;;20.70;73.30;;;;;;5095789;28;20024;-15
2022/07/08 06:33:29;;;;;;;6.07;4.70;;;20.80;73.10;;;;;;5095793;28;20024;-15
2022/07/08 06:35:55;;;;;;;5.07;3.90;;;20.90;72.80;;;;;;5095733;28;20153;-15
2022/07/08 06:38:21;;;;;;;5.72;4.50;;;21.00;72.20;;;;;;5094265;28;20032;-16
2022/07/08 06:40:47;;;;;;;5.65;4.10;;;21.10;72.00;;;;;;5095582;28;20045;-15
2022/07/08 06:43:13;;;;;;;5.45;4.93;;;21.20;72.00;;;;;;5095631;28;20032;-15
2022/07/08 06:45:39;;;;;;;6.35;5.03;;;21.40;71.60;;;;;;5095501;28;20032;-15
2022/07/08 06:48:05;;;;;;;6.93;5.20;;;21.50;71.60;;;;;;5095124;28;20028;-16
2022/07/08 06:50:31;;;;;;;5.78;4.18;;;21.60;71.30;;;;;;5095556;28;20020;-15
2022/07/08 06:52:57;;;;;;;6.07;4.15;;;21.70;70.80;;;;;;5093871;28;20047;-15
2022/07/08 06:55:23;;;;;;;3.88;3.50;;;21.90;70.30;;;;;;5095328;28;20472;-15
2022/07/08 06:57:49;;;;;;;5.50;4.40;;;21.90;69.70;;;;;;5095522;28;20070;-15
2022/07/08 07:00:16;;;;;;;3.88;3.40;;;22.00;69.40;;;;;;5095256;28;20562;-15
2022/07/08 07:02:41;;;;;;;4.80;3.17;;;22.10;69.10;;;;;;5095387;28;20070;-15
2022/07/08 07:05:08;;;;;;;3.00;2.80;;;22.30;68.60;;;;;;5095137;28;20036;-15
2022/07/08 07:07:35;;;;;;;4.57;2.80;;;22.50;68.30;;;;;;5095085;28;20047;-16
2022/07/08 07:10:01;;;;;;;4.07;3.30;;;22.70;66.10;;;;;;5095259;28;20036;-15
2022/07/08 07:12:27;;;;;;;3.42;3.00;;;22.90;64.20;;;;;;5094705;28;20028;-16
2022/07/08 07:14:53;;;;;;;3.58;3.00;;;23.10;65.50;;;;;;5094914;28;20116;-13
2022/07/08 07:17:21;;;;;;;3.33;2.80;;;23.20;64.60;;;;;;5095201;28;20024;-14
2022/07/08 07:19:48;;;;;;;3.00;2.60;;;23.40;64.30;;;;;;5094863;28;20127;-14
2022/07/08 07:22:16;;;;;;;3.47;2.65;;;23.50;63.50;;;;;;5094494;28;20024;-14
2022/07/08 07:24:42;;;;;;;3.70;2.90;;;23.70;63.70;;;;;;5094994;28;20028;-14
2022/07/08 07:27:08;;;;;;;3.55;3.00;;;23.90;63.00;;;;;;5094908;28;20074;-14
2022/07/08 07:29:34;;;;;;;4.38;2.50;;;24.10;62.00;;;;;;5094632;28;20060;-13
2022/07/08 07:32:00;;;;;;;3.15;2.33;;;24.30;62.30;;;;;;5094623;28;20097;-14
2022/07/08 07:34:27;;;;;;;3.10;2.80;;;24.40;61.90;;;;;;5094355;28;20064;-15
2022/07/08 07:36:53;;;;;;;3.10;2.80;;;24.50;61.20;;;;;;5094859;28;20020;-15
2022/07/08 07:39:19;;;;;;;3.47;2.97;;;24.60;61.20;;;;;;5095078;28;20021;-16
2022/07/08 07:41:45;;;;;;;2.97;2.78;;;24.70;59.70;;;;;;5094298;28;20035;-15
2022/07/08 07:44:12;;;;;;;2.97;2.67;;;24.90;59.30;;;;;;5094481;28;20483;-15
2022/07/08 07:46:38;;;;;;;3.42;2.80;;;25.00;59.70;;;;;;5094129;28;20035;-15
2022/07/08 07:49:03;;;;;;;3.63;2.92;;;25.20;59.20;;;;;;5094739;28;20032;-15
2022/07/08 07:51:30;;;;;;;2.97;2.70;;;25.40;56.90;;;;;;5094518;28;20028;-15
2022/07/08 07:53:55;;;;;;;3.30;2.70;;;25.50;57.90;;;;;;5094168;28;20500;-15
2022/07/08 07:56:23;;;;;;;5.05;3.10;;;25.70;57.40;;;;;;5093918;28;20081;-15
2022/07/08 07:58:49;;;;;;;3.75;3.28;;;25.90;55.90;;;;;;5093568;28;20429;-16
2022/07/08 08:01:15;;;;;;;3.38;2.70;;;25.90;54.50;;;;;;5094043;28;20031;-15
2022/07/08 08:03:41;;;;;;;3.08;2.50;;;26.00;56.40;;;;;;5093917;28;20028;-15
2022/07/08 08:06:07;;;;;;;3.13;2.78;;;26.20;56.40;;;;;;5093904;28;20436;-16
2022/07/08 08:08:34;;;;;;;3.63;2.38;;;26.40;55.60;;;;;;5093757;28;20040;-15
2022/07/08 08:11:01;;;;;;;5.40;3.13;;;26.50;54.70;;;;;;5093942;28;20055;-14
2022/07/08 08:13:28;;;;;;;4.90;3.00;;;26.60;54.10;;;;;;5094106;28;20542;-15
2022/07/08 08:15:54;;;;;;;2.40;2.17;;;26.90;54.40;;;;;;5093812;28;20484;-15
2022/07/08 08:18:20;;;;;;;2.67;2.20;;;27.10;53.60;;;;;;5093643;28;20032;-15
2022/07/08 08:20:47;;;;;;;4.30;2.70;;;27.30;51.10;;;;;;5093732;28;20024;-15
2022/07/08 08:23:13;;;;;;;2.63;2.38;;;27.50;51.50;;;;;;5094254;28;20113;-14
2022/07/08 08:25:39;;;;;;;2.45;2.13;;;27.70;51.40;;;;;;5093935;28;20526;-16
2022/07/08 08:28:05;;;;;;;3.60;2.20;;;27.90;51.40;;;;;;5093828;28;20054;-16
2022/07/08 08:30:31;;;;;;;2.42;2.22;;;28.20;50.00;;;;;;5093411;28;20562;-15
2022/07/08 08:32:58;;;;;;;2.40;2.20;;;28.40;49.50;;;;;;5093489;28;20070;-15
2022/07/08 08:35:24;;;;;;;2.40;2.20;;;28.70;47.90;;;;;;5092221;28;20081;-16
2022/07/08 08:37:51;;;;;;;2.10;1.90;;;28.80;47.10;;;;;;5093406;28;20483;-15
2022/07/08 08:40:20;;;;;;;2.10;1.90;;;28.90;47.20;;;;;;5093279;28;20031;-16
2022/07/08 08:42:46;;;;;;;2.22;2.00;;;29.10;46.20;;;;;;5093301;28;20103;-15
2022/07/08 08:45:12;;;;;;;2.90;1.90;;;29.20;45.30;;;;;;5093272;28;20040;-15
2022/07/08 08:47:39;;;;;;;1.80;1.70;;;29.30;44.90;;;;;;5093367;28;20027;-15
2022/07/08 08:52:54;;;;;;;4.15;1.90;;;29.30;44.10;;;;;;5093299;28;20051;-14
2022/07/08 08:55:33;;;;;;;4.93;2.33;;;29.40;44.70;;;;;;5093348;28;20028;-15
2022/07/08 08:58:02;;;;;;;2.20;2.00;;;29.50;41.90;;;;;;5093467;28;20063;-14
2022/07/08 09:00:30;;;;;;;2.55;1.83;;;29.50;42.70;;;;;;5091845;28;20039;-14
2022/07/08 09:02:57;;;;;;;3.40;2.00;;;29.40;43.30;;;;;;5093137;28;20552;-14
2022/07/08 09:05:25;;;;;;;2.55;2.00;;;29.40;42.30;;;;;;5093983;28;20028;-15
2022/07/08 09:07:52;;;;;;;2.88;1.90;;;29.50;42.70;;;;;;5093979;28;20036;-13
2022/07/08 09:10:19;;;;;;;3.40;1.75;;;29.80;41.60;;;;;;5095150;28;20069;-15
2022/07/08 09:13:08;;;;;;;2.85;1.80;;;29.90;41.60;;;;;;5097514;28;20028;-14
2022/07/08 09:16:02;;;;;;;3.30;2.00;;;30.20;41.00;;;;;;5097231;28;20092;-15
2022/07/08 09:18:40;;;;;;;2.00;1.80;;;30.40;41.30;;;;;;5094886;28;20035;-15
2022/07/08 09:21:07;;;;;;;1.92;1.83;;;30.60;42.00;;;;;;5097821;28;20020;-14
2022/07/08 09:23:36;;;;;;;2.42;1.88;;;30.90;41.10;;;;;;5097023;28;20444;-15
2022/07/08 09:26:07;;;;;;;2.20;2.00;;;31.10;41.50;;;;;;5097342;28;20107;-15
2022/07/08 09:28:36;;;;;;;2.30;1.88;;;31.40;39.40;;;;;;5097038;28;20024;-14
2022/07/08 09:31:12;;;;;;;3.50;2.05;;;31.60;39.30;;;;;;5096887;28;20412;-14
2022/07/08 09:33:39;;;;;;;2.42;2.03;;;31.80;37.80;;;;;;5096633;28;20028;-13
2022/07/08 09:36:08;;;;;;;2.55;2.00;;;31.90;37.40;;;;;;5097122;28;20028;-14
2022/07/08 09:38:36;;;;;;;2.35;2.05;;;31.90;37.40;;;;;;5096500;28;20097;-14
2022/07/08 09:41:09;;;;;;;1.80;1.70;;;32.00;37.60;;;;;;5095528;28;20027;-15
2022/07/08 09:43:42;;;;;;;;;;;32.00;37.40;;;;;;5096997;28;20096;-14
2022/07/08 09:46:09;;;;;;;1.80;1.70;;;32.20;36.80;;;;;;5096709;28;19947;-14
2022/07/08 09:48:36;;;;;;;2.35;2.00;;;32.40;37.50;;;;;;5096401;28;20492;-14
2022/07/08 09:51:07;;;;;;;1.92;1.80;;;32.60;37.40;;;;;;5096986;28;20016;-15
2022/07/08 09:53:35;;;;;;;2.15;1.90;;;32.90;36.40;;;;;;5096330;28;20059;-15
2022/07/08 09:56:02;;;;;;;2.30;2.10;;;33.00;36.40;;;;;;5096747;28;20028;-15
2022/07/08 09:58:29;;;;;;;2.50;2.30;;;33.20;36.30;;;;;;5096123;28;20039;-15
2022/07/08 10:00:57;;;;;;;2.25;1.80;;;33.40;36.40;;;;;;5096971;28;20028;-14
2022/07/08 10:03:27;;;;;;;5.57;1.80;;;33.40;36.70;;;;;;5096579;28;20024;-14
2022/07/08 10:05:56;;;;;;;3.25;2.10;;;33.50;36.40;;;;;;5096440;28;20028;-14
2022/07/08 10:08:25;;;;;;;7.15;3.28;;;33.70;35.50;;;;;;5096157;28;20031;-14
2022/07/08 10:10:55;;;;;;;10.52;4.10;;;33.80;35.00;;;;;;5096485;28;20028;-15
2022/07/08 10:13:25;;;;;;;2.70;2.40;;;33.90;35.30;;;;;;5095876;28;20111;-15
2022/07/08 10:15:56;;;;;;;4.75;2.30;;;33.90;35.70;;;;;;5095970;28;20031;-15
2022/07/08 10:18:29;;;;;;;2.15;1.75;;;33.90;35.80;;;;;;5095720;28;20556;-14
2022/07/08 10:20:57;;;;;;;1.88;1.77;;;34.00;35.30;;;;;;5095571;28;20025;-14
2022/07/08 10:23:30;;;;;;;3.58;2.38;;;34.00;35.70;;;;;;5095861;28;20085;-14
2022/07/08 10:25:59;;;;;;;2.38;1.60;;;34.20;35.00;;;;;;5095986;28;20024;-14
2022/07/08 10:28:34;;;;;;;2.65;1.77;;;34.30;34.90;;;;;;5095550;28;20024;-15
2022/07/08 10:31:00;;;;;;;2.58;1.70;;;34.40;34.90;;;;;;5095895;28;20020;-14
2022/07/08 10:33:29;;;;;;;2.22;1.70;;;34.70;34.80;;;;;;5096079;28;20024;-14
2022/07/08 10:36:09;;;;;;;1.80;1.70;;;35.00;34.40;;;;;;5096014;28;20022;-14
2022/07/08 10:38:40;;;;;;;1.92;1.70;;;35.30;34.00;;;;;;5095843;28;20105;-15
2022/07/08 10:41:09;;;;;;;1.85;1.75;;;35.50;32.80;;;;;;5096231;28;20024;-14
2022/07/08 10:44:01;;;;;;;2.45;1.73;;;35.50;33.20;;;;;;5095387;28;20475;-15
2022/07/08 10:46:28;;;;;;;1.42;1.33;;;35.50;33.20;;;;;;5096476;28;20036;-14
2022/07/08 10:48:58;;;;;;;2.28;1.52;;;35.40;33.60;;;;;;5095581;28;20114;-15
2022/07/08 10:51:24;;;;;;;1.75;1.35;;;35.60;32.80;;;;;;5095473;28;20032;-14
2022/07/08 10:53:55;;;;;;;1.60;1.50;;;35.60;32.40;;;;;;5095175;28;20047;-14
2022/07/08 10:56:49;;;;;;;1.50;1.40;;;35.70;32.50;;;;;;5095377;28;20039;-15
2022/07/08 10:59:21;;;;;;;2.72;1.80;;;35.90;32.10;;;;;;5095584;28;20066;-15
2022/07/08 11:02:10;;;;;;;1.58;1.48;;;36.00;32.10;;;;;;5095990;28;20020;-15
2022/07/08 11:04:40;;;;;;;2.72;1.40;;;35.70;32.10;;;;;;5094918;28;20020;-14
2022/07/08 11:07:20;;;;;;;1.52;1.30;;;35.60;32.90;;;;;;5095108;28;20475;-15
2022/07/08 11:09:49;;;;;;;1.55;1.30;;;35.80;32.60;;;;;;5095484;28;20044;-15
2022/07/08 11:12:17;;;;;;;5.85;1.67;;;36.00;31.80;;;;;;5094814;28;20526;-14
2022/07/08 11:14:49;;;;;;;2.08;1.38;;;36.00;31.90;;;;;;5095449;28;20016;-14
2022/07/08 11:17:19;;;;;;;2.40;1.80;;;36.00;32.20;;;;;;5095273;28;20036;-14
2022/07/08 11:19:46;;;;;;;2.83;1.33;;;36.40;30.70;;;;;;5095083;28;20430;-14
2022/07/08 11:22:13;;;;;;;2.33;1.48;;;36.50;30.80;;;;;;5094805;28;20440;-14
2022/07/08 11:24:42;;;;;;;2.58;1.30;;;36.90;30.40;;;;;;5094615;28;20067;-15
2022/07/08 11:27:08;;;;;;;1.50;1.40;;;37.30;30.80;;;;;;5094796;28;20024;-15
2022/07/08 11:29:35;;;;;;;1.80;1.65;;;37.60;30.30;;;;;;5094686;28;20034;-14
2022/07/08 11:32:04;;;;;;;2.75;1.58;;;38.00;30.20;;;;;;5094627;28;20086;-15
2022/07/08 11:34:31;;;;;;;1.95;1.50;;;38.30;29.30;;;;;;5093381;28;20019;-15
2022/07/08 11:37:01;;;;;;;2.60;1.63;;;38.40;28.50;;;;;;5094847;28;20036;-15
2022/07/08 11:39:28;;;;;;;1.80;1.50;;;38.50;28.40;;;;;;5093283;28;20023;-14
2022/07/08 11:41:54;;;;;;;2.05;1.38;;;38.40;28.80;;;;;;5094970;28;20096;-14
2022/07/08 11:44:22;;;;;;;1.88;1.30;;;38.60;27.50;;;;;;5094618;28;20092;-13
2022/07/08 11:46:50;;;;;;;1.50;1.40;;;38.70;27.80;;;;;;5094313;28;20039;-15
2022/07/08 11:49:17;;;;;;;1.75;1.30;;;38.90;28.20;;;;;;5094314;28;20059;-15
2022/07/08 11:51:47;;;;;;;1.63;1.50;;;39.10;28.10;;;;;;5094433;28;20024;-15
2022/07/08 11:54:15;;;;;;;2.35;1.40;;;39.30;27.70;;;;;;5093992;28;20047;-15
2022/07/08 11:56:42;;;;;;;1.15;1.13;;;39.50;28.00;;;;;;5094192;28;20036;-15
2022/07/08 11:59:08;;;;;;;1.40;1.30;;;39.50;28.10;;;;;;5094090;28;20035;-14
2022/07/08 12:01:35;;;;;;;1.40;1.30;;;39.50;27.70;;;;;;5094401;28;20024;-16
2022/07/08 12:04:06;;;;;;;1.88;1.33;;;39.40;27.10;;;;;;5094005;28;20024;-14
2022/07/08 12:06:33;;;;;;;1.10;1.10;;;39.40;26.90;;;;;;5094080;28;20036;-14
2022/07/08 12:09:08;;;;;;;1.10;1.10;;;39.40;27.40;;;;;;5093946;28;20111;-16
2022/07/08 12:11:42;;;;;;;3.70;1.77;;;39.40;27.30;;;;;;5093999;28;20021;-14
2022/07/08 12:14:09;;;;;;;3.17;1.50;;;39.40;27.10;;;;;;5093770;28;20487;-15
2022/07/08 12:16:42;;;;;;;1.33;1.23;;;39.30;26.80;;;;;;5093617;28;20115;-14
2022/07/08 12:19:29;;;;;;;1.42;1.20;;;39.40;26.90;;;;;;5093828;28;20035;-14
2022/07/08 12:21:56;;;;;;;1.40;1.30;;;39.60;26.70;;;;;;5094084;28;20028;-14
2022/07/08 12:24:25;;;;;;;2.25;1.58;;;39.50;26.60;;;;;;5093568;28;20032;-14
2022/07/08 12:26:59;;;;;;;1.30;1.27;;;39.30;26.80;;;;;;5093540;28;20418;-15
2022/07/08 12:29:31;;;;;;;3.10;1.40;;;39.00;26.90;;;;;;5093919;28;20040;-14
2022/07/08 12:31:57;;;;;;;1.45;1.35;;;38.50;27.10;;;;;;5093615;28;20108;-14
2022/07/08 12:34:24;;;;;;;1.60;0.93;;;38.20;27.80;;;;;;5092081;28;20099;-15
2022/07/08 12:36:51;;;;;;;1.10;1.10;;;38.00;28.30;;;;;;5093595;28;20065;-14
2022/07/08 12:39:28;;;;;;;1.13;1.13;;;38.20;28.30;;;;;;5093790;28;20082;-13
2022/07/08 12:42:05;;;;;;;1.15;0.95;;;38.50;26.40;;;;;;5093690;28;20048;-13
2022/07/08 12:44:31;;;;;;;2.08;0.98;;;38.90;26.90;;;;;;5092851;28;20024;-14
2022/07/08 12:46:58;;;;;;;1.75;1.20;;;39.40;26.40;;;;;;5093329;28;20036;-13
2022/07/08 12:49:29;;;;;;;0.90;0.90;;;39.80;26.20;;;;;;5093354;28;20024;-14
2022/07/08 12:51:56;;;;;;;1.35;1.20;;;40.20;25.90;;;;;;5093316;28;20074;-14